Bevington, IA (50033)

9:56 PM CDT on October 01, 2014 (GMT -0500)
N.E. Madison Co. Cumming, IA | Change Station
CLOSE
Current Station
Personal Weather Station
Location: Cumming, IA
Elevation: 980 ft
Nearby Weather Stations

Elev 980 ft 41.45 °N, 93.80 °W | Updated 26 minutes ago

Partly Cloudy
Partly Cloudy
63.1 °F
Feels Like 63.1 °F
N
0.0
Wind Variable Wind from South
Gusts 2.0 mph

Today
High -- | Low -- °F
--% Chance of Precip.
Yesterday
High -- | Low -- °F
Precip. -- in
7:11 AM 6:56 PM
First Quarter, 54% visible
Pressure 29.81 in
Visibility 5.0 miles
Clouds Scattered Clouds 900 ft
Dew Point 62 °F
Humidity 96%
Rainfall 1.24 in
Snow Depth Not available.
UV 0 out of 12
Pollen .40 out of 12
Air Quality Not available.
Flu Activity Not available.
SPECI KDSM 020226Z 14004KT 5SM BR SCT009 19/17 A2981 RMK AO2 T01890172

More Conditions Fewer Conditions

Pressure 29.81 in
Visibility 5.0 miles
Clouds Scattered Clouds 900 ft
Dew Point 62 °F
Humidity 96%
Rainfall 1.24 in
Snow Depth Not available.
UV 0 out of 12
Pollen .40 out of 12
Air Quality Not available.
Flu Activity Not available.
SPECI KDSM 020226Z 14004KT 5SM BR SCT009 19/17 A2981 RMK AO2 T01890172

More Conditions Fewer Conditions

10-Day Weather Forecast

Almanac

Astronomy

Oct. 01, 2014 Rise Set
Actual Time 7:11 AM CDT 6:56 PM CDT
Civil Twilight 6:44 AM CDT 7:24 PM CDT
Nautical Twilight 6:12 AM CDT 7:56 PM CDT
Astronomical Twilight 5:39 AM CDT 8:28 PM CDT
Moon 2:16 PM CDT (10/1) No Moon Set
Length of Visible Light 12h 40m
Length of Day
11h 45m
Tomorrow will be 2m 44s shorter.
First Quarter, 54% of the Moon is Illuminated
Today
First Quarter
Oct 8
Full
Oct 15
Last Quarter
Oct 23
New
Oct 30
First Quarter

Today's Extremes

State Highs State Lows

Community

WunderPhotos

Upload Photos

1,758,154 photos uploaded!

WunderBlogs® & News

Nearby

Snow Depth

Station Depth Elevation
No new snow has been reported.

Earthquake Activity

City Distance Mag. Time & Date
No recent earthquake activity has been reported nearby.
Minimum magnitude displayed is 2.5.

Coastal Water Temperatures

Place Temperature
No Stations Reporting

Nearby Weather Stations